sensor_id;sensor_type;location;lat;lon;timestamp;temperature;humidity
16040;DHT22;8124;48.634;8.120;2023-07-28T00:01:54;23.50;99.90
16040;DHT22;8124;48.634;8.120;2023-07-28T00:06:58;23.60;99.90
16040;DHT22;8124;48.634;8.120;2023-07-28T00:12:01;23.60;99.90
16040;DHT22;8124;48.634;8.120;2023-07-28T00:17:05;23.50;99.90
16040;DHT22;8124;48.634;8.120;2023-07-28T00:22:09;23.50;99.90
16040;DHT22;8124;48.634;8.120;2023-07-28T00:27:12;23.50;99.90
16040;DHT22;8124;48.634;8.120;2023-07-28T00:32:18;23.50;99.90
16040;DHT22;8124;48.634;8.120;2023-07-28T00:37:23;23.50;99.90
16040;DHT22;8124;48.634;8.120;2023-07-28T00:42:26;23.50;99.90
16040;DHT22;8124;48.634;8.120;2023-07-28T00:47:29;23.50;99.90
16040;DHT22;8124;48.634;8.120;2023-07-28T00:52:33;23.50;99.90
16040;DHT22;8124;48.634;8.120;2023-07-28T00:57:37;23.40;99.90
16040;DHT22;8124;48.634;8.120;2023-07-28T01:02:41;23.50;99.90
16040;DHT22;8124;48.634;8.120;2023-07-28T01:07:53;23.50;99.90
16040;DHT22;8124;48.634;8.120;2023-07-28T01:13:02;23.50;99.90
16040;DHT22;8124;48.634;8.120;2023-07-28T01:18:05;23.40;99.90
16040;DHT22;8124;48.634;8.120;2023-07-28T01:23:20;23.30;99.90
16040;DHT22;8124;48.634;8.120;2023-07-28T01:28:28;23.40;99.90
16040;DHT22;8124;48.634;8.120;2023-07-28T01:33:32;23.30;99.90
16040;DHT22;8124;48.634;8.120;2023-07-28T01:38:35;23.40;99.90
16040;DHT22;8124;48.634;8.120;2023-07-28T01:43:39;23.40;99.90
16040;DHT22;8124;48.634;8.120;2023-07-28T01:48:43;23.40;99.90
16040;DHT22;8124;48.634;8.120;2023-07-28T01:53:46;23.30;99.90
16040;DHT22;8124;48.634;8.120;2023-07-28T01:58:50;23.30;99.90
16040;DHT22;8124;48.634;8.120;2023-07-28T02:03:53;23.30;99.90
16040;DHT22;8124;48.634;8.120;2023-07-28T02:08:57;23.30;99.90
16040;DHT22;8124;48.634;8.120;2023-07-28T02:14:01;23.20;99.90
16040;DHT22;8124;48.634;8.120;2023-07-28T02:19:04;23.20;99.90
16040;DHT22;8124;48.634;8.120;2023-07-28T02:24:08;23.20;99.90
16040;DHT22;8124;48.634;8.120;2023-07-28T02:29:12;23.20;99.90
16040;DHT22;8124;48.634;8.120;2023-07-28T02:34:15;23.20;99.90
16040;DHT22;8124;48.634;8.120;2023-07-28T02:39:18;23.20;99.90
16040;DHT22;8124;48.634;8.120;2023-07-28T02:44:23;23.20;99.90
16040;DHT22;8124;48.634;8.120;2023-07-28T02:49:26;23.00;99.90
16040;DHT22;8124;48.634;8.120;2023-07-28T02:54:29;22.80;99.90
16040;DHT22;8124;48.634;8.120;2023-07-28T02:59:34;22.60;99.90
16040;DHT22;8124;48.634;8.120;2023-07-28T03:04:37;22.50;99.90
16040;DHT22;8124;48.634;8.120;2023-07-28T03:09:40;22.60;99.90
16040;DHT22;8124;48.634;8.120;2023-07-28T03:14:44;22.70;99.90
16040;DHT22;8124;48.634;8.120;2023-07-28T03:19:47;22.80;99.90
16040;DHT22;8124;48.634;8.120;2023-07-28T03:24:50;22.80;99.90
16040;DHT22;8124;48.634;8.120;2023-07-28T03:29:54;22.80;99.90
16040;DHT22;8124;48.634;8.120;2023-07-28T03:34:57;22.90;99.90
16040;DHT22;8124;48.634;8.120;2023-07-28T03:40:03;22.80;99.90
16040;DHT22;8124;48.634;8.120;2023-07-28T03:45:16;22.80;99.90
16040;DHT22;8124;48.634;8.120;2023-07-28T03:50:19;22.80;99.90
16040;DHT22;8124;48.634;8.120;2023-07-28T03:55:22;22.80;99.90
16040;DHT22;8124;48.634;8.120;2023-07-28T04:00:27;22.70;99.90
16040;DHT22;8124;48.634;8.120;2023-07-28T04:05:31;22.50;99.90
16040;DHT22;8124;48.634;8.120;2023-07-28T04:10:34;22.70;99.90
16040;DHT22;8124;48.634;8.120;2023-07-28T04:15:39;22.60;99.90
16040;DHT22;8124;48.634;8.120;2023-07-28T04:20:42;22.60;99.90
16040;DHT22;8124;48.634;8.120;2023-07-28T04:25:45;22.40;99.90
16040;DHT22;8124;48.634;8.120;2023-07-28T04:30:49;22.40;99.90
16040;DHT22;8124;48.634;8.120;2023-07-28T04:36:18;22.50;99.90
16040;DHT22;8124;48.634;8.120;2023-07-28T04:41:21;22.50;99.90
16040;DHT22;8124;48.634;8.120;2023-07-28T04:46:28;22.50;99.90
16040;DHT22;8124;48.634;8.120;2023-07-28T04:51:32;22.60;99.90
16040;DHT22;8124;48.634;8.120;2023-07-28T04:57:11;22.50;99.90
16040;DHT22;8124;48.634;8.120;2023-07-28T05:02:19;22.40;99.90
16040;DHT22;8124;48.634;8.120;2023-07-28T05:07:22;22.40;99.90
16040;DHT22;8124;48.634;8.120;2023-07-28T05:12:25;22.40;99.90
16040;DHT22;8124;48.634;8.120;2023-07-28T05:17:29;22.40;99.90
16040;DHT22;8124;48.634;8.120;2023-07-28T05:23:04;22.20;99.90
16040;DHT22;8124;48.634;8.120;2023-07-28T05:28:07;22.20;99.90
16040;DHT22;8124;48.634;8.120;2023-07-28T05:33:15;22.10;99.90
16040;DHT22;8124;48.634;8.120;2023-07-28T05:38:23;22.10;99.90
16040;DHT22;8124;48.634;8.120;2023-07-28T05:43:26;22.20;99.90
16040;DHT22;8124;48.634;8.120;2023-07-28T05:48:32;22.10;99.90
16040;DHT22;8124;48.634;8.120;2023-07-28T05:53:35;22.20;99.90
16040;DHT22;8124;48.634;8.120;2023-07-28T05:58:40;22.10;99.90
16040;DHT22;8124;48.634;8.120;2023-07-28T06:03:45;22.10;99.90
16040;DHT22;8124;48.634;8.120;2023-07-28T06:08:55;22.10;99.90
16040;DHT22;8124;48.634;8.120;2023-07-28T06:13:58;22.10;99.90
16040;DHT22;8124;48.634;8.120;2023-07-28T06:19:03;22.10;99.90
16040;DHT22;8124;48.634;8.120;2023-07-28T06:24:08;22.10;99.90
16040;DHT22;8124;48.634;8.120;2023-07-28T06:29:11;22.30;99.90
16040;DHT22;8124;48.634;8.120;2023-07-28T06:34:15;22.30;99.90
16040;DHT22;8124;48.634;8.120;2023-07-28T06:39:19;22.30;99.90
16040;DHT22;8124;48.634;8.120;2023-07-28T06:44:22;22.20;99.90
16040;DHT22;8124;48.634;8.120;2023-07-28T06:49:26;22.10;99.90
16040;DHT22;8124;48.634;8.120;2023-07-28T06:54:29;22.10;99.90
16040;DHT22;8124;48.634;8.120;2023-07-28T06:59:33;22.20;99.90
16040;DHT22;8124;48.634;8.120;2023-07-28T07:04:38;22.20;99.90
16040;DHT22;8124;48.634;8.120;2023-07-28T07:09:41;22.10;99.90
16040;DHT22;8124;48.634;8.120;2023-07-28T07:14:44;22.10;99.90
16040;DHT22;8124;48.634;8.120;2023-07-28T07:19:48;22.20;99.90
16040;DHT22;8124;48.634;8.120;2023-07-28T07:24:52;22.20;99.90
16040;DHT22;8124;48.634;8.120;2023-07-28T07:29:55;22.10;99.90
16040;DHT22;8124;48.634;8.120;2023-07-28T07:34:59;22.00;99.90
16040;DHT22;8124;48.634;8.120;2023-07-28T07:40:04;22.10;99.90
16040;DHT22;8124;48.634;8.120;2023-07-28T07:45:09;22.20;99.90
16040;DHT22;8124;48.634;8.120;2023-07-28T07:50:13;22.20;99.90
16040;DHT22;8124;48.634;8.120;2023-07-28T07:55:16;22.30;99.90
16040;DHT22;8124;48.634;8.120;2023-07-28T08:00:20;22.30;99.90
16040;DHT22;8124;48.634;8.120;2023-07-28T08:05:24;22.20;99.90
16040;DHT22;8124;48.634;8.120;2023-07-28T08:10:27;22.20;99.90
16040;DHT22;8124;48.634;8.120;2023-07-28T08:15:30;22.30;99.90
16040;DHT22;8124;48.634;8.120;2023-07-28T08:20:34;22.30;99.90
16040;DHT22;8124;48.634;8.120;2023-07-28T08:25:37;22.30;99.90
16040;DHT22;8124;48.634;8.120;2023-07-28T08:30:40;22.30;99.90
16040;DHT22;8124;48.634;8.120;2023-07-28T08:35:45;22.30;99.90
16040;DHT22;8124;48.634;8.120;2023-07-28T08:40:48;22.30;99.90
16040;DHT22;8124;48.634;8.120;2023-07-28T08:45:52;22.40;99.90
16040;DHT22;8124;48.634;8.120;2023-07-28T08:50:57;22.30;99.90
16040;DHT22;8124;48.634;8.120;2023-07-28T08:56:00;22.20;99.90
16040;DHT22;8124;48.634;8.120;2023-07-28T09:01:07;22.20;99.90
16040;DHT22;8124;48.634;8.120;2023-07-28T09:06:12;22.20;99.90
16040;DHT22;8124;48.634;8.120;2023-07-28T09:11:16;22.20;99.90
16040;DHT22;8124;48.634;8.120;2023-07-28T09:16:21;22.30;99.90
16040;DHT22;8124;48.634;8.120;2023-07-28T09:21:27;22.60;99.90
16040;DHT22;8124;48.634;8.120;2023-07-28T09:26:37;22.60;99.90
16040;DHT22;8124;48.634;8.120;2023-07-28T09:31:41;22.80;99.90
16040;DHT22;8124;48.634;8.120;2023-07-28T09:36:45;23.00;99.90
16040;DHT22;8124;48.634;8.120;2023-07-28T09:41:49;23.00;99.90
16040;DHT22;8124;48.634;8.120;2023-07-28T09:46:53;23.20;99.90
16040;DHT22;8124;48.634;8.120;2023-07-28T09:52:04;23.30;99.90
16040;DHT22;8124;48.634;8.120;2023-07-28T09:57:11;23.40;99.90
16040;DHT22;8124;48.634;8.120;2023-07-28T10:02:37;23.60;99.90
16040;DHT22;8124;48.634;8.120;2023-07-28T10:07:43;23.60;99.90
16040;DHT22;8124;48.634;8.120;2023-07-28T10:12:49;23.80;99.90
16040;DHT22;8124;48.634;8.120;2023-07-28T10:17:55;23.60;99.90
16040;DHT22;8124;48.634;8.120;2023-07-28T10:23:10;23.60;99.90
16040;DHT22;8124;48.634;8.120;2023-07-28T10:28:26;23.90;99.90
16040;DHT22;8124;48.634;8.120;2023-07-28T10:33:32;24.10;99.90
16040;DHT22;8124;48.634;8.120;2023-07-28T10:38:39;24.20;99.90
16040;DHT22;8124;48.634;8.120;2023-07-28T10:43:42;24.20;99.90
16040;DHT22;8124;48.634;8.120;2023-07-28T10:48:47;24.30;99.90
16040;DHT22;8124;48.634;8.120;2023-07-28T10:53:54;24.30;99.90
16040;DHT22;8124;48.634;8.120;2023-07-28T10:58:58;24.40;99.90
16040;DHT22;8124;48.634;8.120;2023-07-28T11:04:09;24.30;99.90
16040;DHT22;8124;48.634;8.120;2023-07-28T11:09:15;24.20;99.90
16040;DHT22;8124;48.634;8.120;2023-07-28T11:14:18;24.10;99.90
16040;DHT22;8124;48.634;8.120;2023-07-28T11:19:22;24.00;99.90
16040;DHT22;8124;48.634;8.120;2023-07-28T11:24:29;24.00;99.90
16040;DHT22;8124;48.634;8.120;2023-07-28T11:29:32;23.90;99.90
16040;DHT22;8124;48.634;8.120;2023-07-28T11:34:36;24.10;99.90
16040;DHT22;8124;48.634;8.120;2023-07-28T11:39:41;24.20;99.90
16040;DHT22;8124;48.634;8.120;2023-07-28T11:44:44;24.10;99.90
16040;DHT22;8124;48.634;8.120;2023-07-28T11:49:49;23.90;99.90
16040;DHT22;8124;48.634;8.120;2023-07-28T11:54:54;24.00;99.90
16040;DHT22;8124;48.634;8.120;2023-07-28T11:59:57;24.10;99.90
16040;DHT22;8124;48.634;8.120;2023-07-28T12:05:00;24.00;99.90
16040;DHT22;8124;48.634;8.120;2023-07-28T12:10:08;23.90;99.90
16040;DHT22;8124;48.634;8.120;2023-07-28T12:15:26;23.80;99.90
16040;DHT22;8124;48.634;8.120;2023-07-28T12:20:37;23.80;99.90
16040;DHT22;8124;48.634;8.120;2023-07-28T12:25:42;23.60;99.90
16040;DHT22;8124;48.634;8.120;2023-07-28T12:30:45;23.80;99.90
16040;DHT22;8124;48.634;8.120;2023-07-28T12:35:51;23.80;99.90
16040;DHT22;8124;48.634;8.120;2023-07-28T12:40:55;23.90;99.90
16040;DHT22;8124;48.634;8.120;2023-07-28T12:46:01;23.90;99.90
16040;DHT22;8124;48.634;8.120;2023-07-28T12:51:07;24.00;99.90
16040;DHT22;8124;48.634;8.120;2023-07-28T12:56:12;23.90;99.90
16040;DHT22;8124;48.634;8.120;2023-07-28T13:01:36;24.10;99.90
16040;DHT22;8124;48.634;8.120;2023-07-28T13:06:40;24.20;99.90
16040;DHT22;8124;48.634;8.120;2023-07-28T13:11:45;24.20;99.90
16040;DHT22;8124;48.634;8.120;2023-07-28T13:16:51;24.20;99.90
16040;DHT22;8124;48.634;8.120;2023-07-28T13:21:53;24.10;99.90
16040;DHT22;8124;48.634;8.120;2023-07-28T13:26:58;23.90;99.90
16040;DHT22;8124;48.634;8.120;2023-07-28T13:32:01;23.90;99.90
16040;DHT22;8124;48.634;8.120;2023-07-28T13:37:04;23.90;99.90
16040;DHT22;8124;48.634;8.120;2023-07-28T13:42:09;24.00;99.90
16040;DHT22;8124;48.634;8.120;2023-07-28T13:47:13;23.70;99.90
16040;DHT22;8124;48.634;8.120;2023-07-28T13:52:16;23.80;99.90
16040;DHT22;8124;48.634;8.120;2023-07-28T13:57:24;23.80;99.90
16040;DHT22;8124;48.634;8.120;2023-07-28T14:02:28;23.70;99.90
16040;DHT22;8124;48.634;8.120;2023-07-28T14:07:31;23.70;99.90
16040;DHT22;8124;48.634;8.120;2023-07-28T14:12:36;23.80;99.90
16040;DHT22;8124;48.634;8.120;2023-07-28T14:17:39;23.80;99.90
16040;DHT22;8124;48.634;8.120;2023-07-28T14:22:42;23.70;99.90
16040;DHT22;8124;48.634;8.120;2023-07-28T14:27:47;23.60;99.90
16040;DHT22;8124;48.634;8.120;2023-07-28T14:32:50;23.60;99.90
16040;DHT22;8124;48.634;8.120;2023-07-28T14:37:53;23.70;99.90
16040;DHT22;8124;48.634;8.120;2023-07-28T14:42:57;23.80;99.90
16040;DHT22;8124;48.634;8.120;2023-07-28T14:48:01;23.80;99.90
16040;DHT22;8124;48.634;8.120;2023-07-28T14:53:29;23.80;99.90
16040;DHT22;8124;48.634;8.120;2023-07-28T14:58:33;23.90;99.90
16040;DHT22;8124;48.634;8.120;2023-07-28T15:03:36;24.00;99.90
16040;DHT22;8124;48.634;8.120;2023-07-28T15:08:40;24.00;99.90
16040;DHT22;8124;48.634;8.120;2023-07-28T15:13:44;24.10;99.90
16040;DHT22;8124;48.634;8.120;2023-07-28T15:18:47;24.10;99.90
16040;DHT22;8124;48.634;8.120;2023-07-28T15:23:53;24.10;99.90
16040;DHT22;8124;48.634;8.120;2023-07-28T15:28:58;24.10;99.90
16040;DHT22;8124;48.634;8.120;2023-07-28T15:34:02;24.10;99.90
16040;DHT22;8124;48.634;8.120;2023-07-28T15:39:06;24.20;99.90
16040;DHT22;8124;48.634;8.120;2023-07-28T15:44:10;24.20;99.90
16040;DHT22;8124;48.634;8.120;2023-07-28T15:49:13;24.20;99.90
16040;DHT22;8124;48.634;8.120;2023-07-28T15:54:16;24.30;99.90
16040;DHT22;8124;48.634;8.120;2023-07-28T15:59:20;24.20;99.90
16040;DHT22;8124;48.634;8.120;2023-07-28T16:04:23;24.10;99.90
16040;DHT22;8124;48.634;8.120;2023-07-28T16:09:27;24.10;99.90
16040;DHT22;8124;48.634;8.120;2023-07-28T16:14:31;24.10;99.90
16040;DHT22;8124;48.634;8.120;2023-07-28T16:19:34;24.20;99.90
16040;DHT22;8124;48.634;8.120;2023-07-28T16:24:37;24.10;99.90
16040;DHT22;8124;48.634;8.120;2023-07-28T16:29:42;23.80;99.90
16040;DHT22;8124;48.634;8.120;2023-07-28T16:34:45;23.80;99.90
16040;DHT22;8124;48.634;8.120;2023-07-28T16:39:48;23.70;99.90
16040;DHT22;8124;48.634;8.120;2023-07-28T16:44:54;23.70;99.90
16040;DHT22;8124;48.634;8.120;2023-07-28T16:49:57;23.70;99.90
16040;DHT22;8124;48.634;8.120;2023-07-28T16:55:01;23.70;99.90
16040;DHT22;8124;48.634;8.120;2023-07-28T17:00:07;23.70;99.90
16040;DHT22;8124;48.634;8.120;2023-07-28T17:05:10;23.70;99.90
16040;DHT22;8124;48.634;8.120;2023-07-28T17:10:13;23.70;99.90
16040;DHT22;8124;48.634;8.120;2023-07-28T17:15:19;23.60;99.90
16040;DHT22;8124;48.634;8.120;2023-07-28T17:20:40;23.90;99.90
16040;DHT22;8124;48.634;8.120;2023-07-28T17:25:43;24.00;99.90
16040;DHT22;8124;48.634;8.120;2023-07-28T17:30:48;23.80;99.90
16040;DHT22;8124;48.634;8.120;2023-07-28T17:35:51;23.70;99.90
16040;DHT22;8124;48.634;8.120;2023-07-28T17:40:54;23.60;99.90
16040;DHT22;8124;48.634;8.120;2023-07-28T17:45:59;23.60;99.90
16040;DHT22;8124;48.634;8.120;2023-07-28T17:51:02;23.60;99.90
16040;DHT22;8124;48.634;8.120;2023-07-28T17:56:06;23.60;99.90
16040;DHT22;8124;48.634;8.120;2023-07-28T18:01:10;23.60;99.90
16040;DHT22;8124;48.634;8.120;2023-07-28T18:06:14;23.50;99.90
16040;DHT22;8124;48.634;8.120;2023-07-28T18:11:17;23.20;99.90
16040;DHT22;8124;48.634;8.120;2023-07-28T18:16:21;23.30;99.90
16040;DHT22;8124;48.634;8.120;2023-07-28T18:21:32;23.30;99.90
16040;DHT22;8124;48.634;8.120;2023-07-28T18:26:36;23.40;99.90
16040;DHT22;8124;48.634;8.120;2023-07-28T18:31:40;23.40;99.90
16040;DHT22;8124;48.634;8.120;2023-07-28T18:36:43;23.30;99.90
16040;DHT22;8124;48.634;8.120;2023-07-28T18:41:46;23.20;99.90
16040;DHT22;8124;48.634;8.120;2023-07-28T18:46:54;23.20;99.90
16040;DHT22;8124;48.634;8.120;2023-07-28T18:51:57;23.20;99.90
16040;DHT22;8124;48.634;8.120;2023-07-28T18:57:00;23.10;99.90
16040;DHT22;8124;48.634;8.120;2023-07-28T19:02:05;23.00;99.90
16040;DHT22;8124;48.634;8.120;2023-07-28T19:07:08;23.00;99.90
16040;DHT22;8124;48.634;8.120;2023-07-28T19:12:11;23.00;99.90
16040;DHT22;8124;48.634;8.120;2023-07-28T19:17:16;23.00;99.90
16040;DHT22;8124;48.634;8.120;2023-07-28T19:22:22;22.90;99.90
16040;DHT22;8124;48.634;8.120;2023-07-28T19:27:25;22.90;99.90
16040;DHT22;8124;48.634;8.120;2023-07-28T19:32:33;22.70;99.90
16040;DHT22;8124;48.634;8.120;2023-07-28T19:37:37;22.50;99.90
16040;DHT22;8124;48.634;8.120;2023-07-28T19:42:46;22.60;99.90
16040;DHT22;8124;48.634;8.120;2023-07-28T19:47:50;22.70;99.90
16040;DHT22;8124;48.634;8.120;2023-07-28T19:52:53;22.70;99.90
16040;DHT22;8124;48.634;8.120;2023-07-28T19:57:56;22.80;99.90
16040;DHT22;8124;48.634;8.120;2023-07-28T20:03:01;22.80;99.90
16040;DHT22;8124;48.634;8.120;2023-07-28T20:08:04;22.80;99.90
16040;DHT22;8124;48.634;8.120;2023-07-28T20:13:07;22.80;99.90
16040;DHT22;8124;48.634;8.120;2023-07-28T20:18:12;22.80;99.90
16040;DHT22;8124;48.634;8.120;2023-07-28T20:23:17;22.50;99.90
16040;DHT22;8124;48.634;8.120;2023-07-28T20:28:20;22.60;99.90
16040;DHT22;8124;48.634;8.120;2023-07-28T20:33:25;22.50;99.90
16040;DHT22;8124;48.634;8.120;2023-07-28T20:38:28;22.40;99.90
16040;DHT22;8124;48.634;8.120;2023-07-28T20:43:31;22.50;99.90
16040;DHT22;8124;48.634;8.120;2023-07-28T20:48:35;22.30;99.90
16040;DHT22;8124;48.634;8.120;2023-07-28T20:53:38;22.20;99.90
16040;DHT22;8124;48.634;8.120;2023-07-28T20:58:41;22.10;99.90
16040;DHT22;8124;48.634;8.120;2023-07-28T21:03:46;22.10;99.90
16040;DHT22;8124;48.634;8.120;2023-07-28T21:08:49;22.10;99.90
16040;DHT22;8124;48.634;8.120;2023-07-28T21:13:52;22.10;99.90
16040;DHT22;8124;48.634;8.120;2023-07-28T21:18:56;22.20;99.90
16040;DHT22;8124;48.634;8.120;2023-07-28T21:23:59;22.30;99.90
16040;DHT22;8124;48.634;8.120;2023-07-28T21:29:02;22.40;99.90
16040;DHT22;8124;48.634;8.120;2023-07-28T21:34:07;22.40;99.90
16040;DHT22;8124;48.634;8.120;2023-07-28T21:39:14;22.40;99.90
16040;DHT22;8124;48.634;8.120;2023-07-28T21:44:17;22.30;99.90
16040;DHT22;8124;48.634;8.120;2023-07-28T21:49:22;22.30;99.90
16040;DHT22;8124;48.634;8.120;2023-07-28T21:54:25;22.10;99.90
16040;DHT22;8124;48.634;8.120;2023-07-28T21:59:28;22.10;99.90
16040;DHT22;8124;48.634;8.120;2023-07-28T22:04:32;22.10;99.90
16040;DHT22;8124;48.634;8.120;2023-07-28T22:09:35;22.20;99.90
16040;DHT22;8124;48.634;8.120;2023-07-28T22:14:38;22.30;99.90
16040;DHT22;8124;48.634;8.120;2023-07-28T22:19:42;22.30;99.90
16040;DHT22;8124;48.634;8.120;2023-07-28T22:24:45;22.40;99.90
16040;DHT22;8124;48.634;8.120;2023-07-28T22:29:48;22.50;99.90
16040;DHT22;8124;48.634;8.120;2023-07-28T22:34:55;22.50;99.90
16040;DHT22;8124;48.634;8.120;2023-07-28T22:39:58;22.50;99.90
16040;DHT22;8124;48.634;8.120;2023-07-28T22:45:01;22.60;99.90
16040;DHT22;8124;48.634;8.120;2023-07-28T22:50:07;22.70;99.90
16040;DHT22;8124;48.634;8.120;2023-07-28T22:55:10;22.80;99.90
16040;DHT22;8124;48.634;8.120;2023-07-28T23:00:17;22.80;99.90
16040;DHT22;8124;48.634;8.120;2023-07-28T23:05:26;22.80;99.90
16040;DHT22;8124;48.634;8.120;2023-07-28T23:10:29;22.70;99.90
16040;DHT22;8124;48.634;8.120;2023-07-28T23:15:32;22.70;99.90
16040;DHT22;8124;48.634;8.120;2023-07-28T23:20:36;22.80;99.90
16040;DHT22;8124;48.634;8.120;2023-07-28T23:25:39;22.80;99.90
16040;DHT22;8124;48.634;8.120;2023-07-28T23:30:42;22.90;99.90
16040;DHT22;8124;48.634;8.120;2023-07-28T23:35:47;22.90;99.90
16040;DHT22;8124;48.634;8.120;2023-07-28T23:40:50;23.00;99.90
16040;DHT22;8124;48.634;8.120;2023-07-28T23:45:53;23.00;99.90
16040;DHT22;8124;48.634;8.120;2023-07-28T23:51:01;23.00;99.90
16040;DHT22;8124;48.634;8.120;2023-07-28T23:56:04;23.10;99.90
